createdAt,value
2018-06-15T00:02:31.424Z,101041.52
2018-06-15T00:05:07.388Z,101035.36
2018-06-15T00:07:41.106Z,101043.08
2018-06-15T00:10:16.553Z,101041.80
2018-06-15T00:12:50.973Z,101042.31
2018-06-15T00:15:26.926Z,101044.11
2018-06-15T00:18:02.409Z,101043.58
2018-06-15T00:20:36.261Z,101049.25
2018-06-15T00:23:10.891Z,101045.77
2018-06-15T00:25:43.652Z,101044.94
2018-06-15T00:28:18.838Z,101041.13
2018-06-15T00:30:52.847Z,101042.84
2018-06-15T00:33:25.173Z,101044.02
2018-06-15T00:35:58.261Z,101044.41
2018-06-15T00:38:32.019Z,101046.88
2018-06-15T00:41:05.920Z,101043.64
2018-06-15T00:43:41.984Z,101046.42
2018-06-15T00:46:15.614Z,101046.00
2018-06-15T00:48:54.961Z,101042.81
2018-06-15T00:51:28.314Z,101050.16
2018-06-15T00:54:02.627Z,101048.89
2018-06-15T00:56:37.457Z,101045.94
2018-06-15T00:59:08.780Z,101048.95
2018-06-15T01:01:49.475Z,101045.44
2018-06-15T01:04:21.968Z,101047.69
2018-06-15T01:07:01.633Z,101048.87
2018-06-15T01:09:34.462Z,101046.63
2018-06-15T01:12:10.032Z,101045.32
2018-06-15T01:14:43.624Z,101045.59
2018-06-15T01:17:21.631Z,101045.43
2018-06-15T01:19:56.124Z,101039.28
2018-06-15T01:22:30.242Z,101037.05
2018-06-15T01:25:07.123Z,101038.76
2018-06-15T01:27:45.173Z,101036.09
2018-06-15T01:30:17.624Z,101040.71
2018-06-15T01:32:56.732Z,101038.11
2018-06-15T01:35:30.454Z,101041.16
2018-06-15T01:38:01.599Z,101039.44
2018-06-15T01:40:37.866Z,101039.44
2018-06-15T01:43:08.886Z,101039.02
2018-06-15T01:45:41.125Z,101035.56
2018-06-15T01:48:17.749Z,101032.26
2018-06-15T01:50:52.702Z,101032.61
2018-06-15T01:53:26.874Z,101038.50
2018-06-15T01:56:01.167Z,101034.74
2018-06-15T01:58:33.381Z,101032.97
2018-06-15T02:01:07.588Z,101036.05
2018-06-15T02:03:44.304Z,101036.09
2018-06-15T02:06:17.766Z,101040.50
2018-06-15T02:08:52.112Z,101035.72
2018-06-15T02:11:26.413Z,101038.76
2018-06-15T02:14:00.026Z,101034.95
2018-06-15T02:16:33.506Z,101036.44
2018-06-15T02:19:11.508Z,101034.81
2018-06-15T02:21:44.430Z,101030.56
2018-06-15T02:24:15.793Z,101031.47
2018-06-15T02:26:55.011Z,101034.66
2018-06-15T02:29:28.393Z,101033.63
2018-06-15T02:32:02.415Z,101032.22
2018-06-15T02:34:34.422Z,101030.86
2018-06-15T02:37:07.365Z,101038.13
2018-06-15T02:39:39.395Z,101038.88
2018-06-15T02:42:13.422Z,101043.55
2018-06-15T02:44:45.537Z,101042.12
2018-06-15T02:47:20.793Z,101040.33
2018-06-15T02:49:54.495Z,101045.44
2018-06-15T02:52:29.105Z,101035.78
2018-06-15T02:55:07.020Z,101031.91
2018-06-15T02:57:38.355Z,101035.62
2018-06-15T03:00:18.143Z,101033.56
2018-06-15T03:02:54.575Z,101039.20
2018-06-15T03:05:28.201Z,101040.85
2018-06-15T03:08:08.434Z,101042.69
2018-06-15T03:10:41.387Z,101045.02
2018-06-15T03:13:21.911Z,101046.18
2018-06-15T03:15:57.474Z,101050.58
2018-06-15T03:18:31.427Z,101052.76
2018-06-15T03:21:04.849Z,101052.78
2018-06-15T03:23:42.655Z,101053.03
2018-06-15T03:26:19.176Z,101051.38
2018-06-15T03:28:56.659Z,101057.02
2018-06-15T03:31:36.290Z,101061.27
2018-06-15T03:34:08.767Z,101062.10
2018-06-15T03:36:49.729Z,101060.70
2018-06-15T03:39:21.539Z,101068.10
2018-06-15T03:41:53.773Z,101063.84
2018-06-15T03:44:27.894Z,101067.85
2018-06-15T03:46:59.960Z,101068.05
2018-06-15T03:49:32.941Z,101074.64
2018-06-15T03:52:04.956Z,101078.59
2018-06-15T03:54:38.097Z,101080.66
2018-06-15T03:57:10.602Z,101079.98
2018-06-15T03:59:41.146Z,101080.32
2018-06-15T04:02:13.930Z,101083.23
2018-06-15T04:04:48.656Z,101085.00
2018-06-15T04:07:19.619Z,101090.09
2018-06-15T04:09:49.983Z,101095.59
2018-06-15T04:12:22.518Z,101094.76
2018-06-15T04:14:53.555Z,101101.34
2018-06-15T04:17:24.438Z,101105.08
2018-06-15T04:19:54.292Z,101105.93
2018-06-15T04:22:24.402Z,101102.05
2018-06-15T04:24:54.897Z,101107.51
2018-06-15T04:27:25.438Z,101104.05
2018-06-15T04:29:56.114Z,101103.94
2018-06-15T04:32:25.867Z,101104.22
2018-06-15T04:34:55.549Z,101107.67
2018-06-15T04:37:26.231Z,101103.33
2018-06-15T04:39:56.040Z,101107.34
2018-06-15T04:42:25.806Z,101110.91
2018-06-15T04:44:56.955Z,101104.72
2018-06-15T04:47:26.685Z,101102.53
2018-06-15T04:49:57.430Z,101102.80
2018-06-15T04:52:27.485Z,101109.08
2018-06-15T04:54:57.200Z,101108.47
2018-06-15T04:57:26.964Z,101107.59
2018-06-15T04:59:58.416Z,101114.14
2018-06-15T05:02:29.848Z,101122.17
2018-06-15T05:05:01.047Z,101125.16
2018-06-15T05:07:31.925Z,101122.43
2018-06-15T05:10:01.601Z,101125.08
2018-06-15T05:12:32.807Z,101125.00
2018-06-15T05:15:05.918Z,101125.45
2018-06-15T05:17:36.136Z,101133.22
2018-06-15T05:20:07.010Z,101134.80
2018-06-15T05:22:37.348Z,101136.26
2018-06-15T05:25:07.599Z,101146.66
2018-06-15T05:27:38.061Z,101142.78
2018-06-15T05:30:09.293Z,101143.64
2018-06-15T05:32:40.367Z,101147.77
2018-06-15T05:35:10.360Z,101145.95
2018-06-15T05:37:40.482Z,101149.70
2018-06-15T05:40:10.118Z,101156.22
2018-06-15T05:42:40.433Z,101162.35
2018-06-15T05:45:10.132Z,101157.39
2018-06-15T05:47:40.901Z,101154.84
2018-06-15T05:50:11.224Z,101159.41
2018-06-15T05:52:42.035Z,101151.95
2018-06-15T05:55:12.636Z,101156.73
2018-06-15T05:57:43.157Z,101157.20
2018-06-15T06:00:13.656Z,101162.27
2018-06-15T06:02:44.288Z,101164.41
2018-06-15T06:05:15.886Z,101165.95
2018-06-15T06:07:46.354Z,101171.54
2018-06-15T06:10:18.771Z,101167.62
2018-06-15T06:12:50.358Z,101166.38
2018-06-15T06:15:20.743Z,101165.16
2018-06-15T06:17:51.630Z,101171.08
2018-06-15T06:20:21.325Z,101173.02
2018-06-15T06:22:52.730Z,101163.03
2018-06-15T06:25:24.447Z,101170.13
2018-06-15T06:27:54.698Z,101170.45
2018-06-15T06:30:26.529Z,101173.30
2018-06-15T06:32:57.321Z,101167.42
2018-06-15T06:35:27.068Z,101163.81
2018-06-15T06:37:56.588Z,101166.83
2018-06-15T06:40:27.215Z,101176.11
2018-06-15T06:42:57.438Z,101179.30
2018-06-15T06:45:27.990Z,101175.81
2018-06-15T06:47:57.624Z,101186.52
2018-06-15T06:50:28.130Z,101188.03
2018-06-15T06:52:59.222Z,101187.30
2018-06-15T06:55:30.296Z,101185.37
2018-06-15T06:58:01.790Z,101192.11
2018-06-15T07:00:33.447Z,101186.88
2018-06-15T07:03:03.144Z,101185.70
2018-06-15T07:05:33.612Z,101190.23
2018-06-15T07:08:05.859Z,101189.80
2018-06-15T07:10:35.810Z,101191.42
2018-06-15T07:13:05.416Z,101192.34
2018-06-15T07:15:35.082Z,101195.70
2018-06-15T07:18:07.326Z,101182.78
2018-06-15T07:20:37.850Z,101191.09
2018-06-15T07:23:08.944Z,101194.08
2018-06-15T07:25:39.320Z,101194.81
2018-06-15T07:28:09.412Z,101193.30
2018-06-15T07:30:41.011Z,101191.11
2018-06-15T07:33:11.774Z,101199.26
2018-06-15T07:35:44.714Z,101200.71
2018-06-15T07:38:16.406Z,101197.67
2018-06-15T07:40:48.668Z,101201.27
2018-06-15T07:43:19.705Z,101200.25
2018-06-15T07:45:50.971Z,101197.62
2018-06-15T07:48:21.092Z,101199.42
2018-06-15T07:50:53.767Z,101203.64
2018-06-15T07:53:23.544Z,101199.06
2018-06-15T07:55:53.907Z,101206.03
2018-06-15T07:58:23.541Z,101206.86
2018-06-15T08:00:54.335Z,101202.54
2018-06-15T08:03:24.038Z,101203.05
2018-06-15T08:05:53.816Z,101194.95
2018-06-15T08:08:24.864Z,101197.69
2018-06-15T08:10:56.415Z,101209.12
2018-06-15T08:13:26.985Z,101203.63
2018-06-15T08:15:56.681Z,101215.55
2018-06-15T08:18:26.403Z,101213.44
2018-06-15T08:20:57.239Z,101210.89
2018-06-15T08:23:27.524Z,101204.33
2018-06-15T08:25:57.199Z,101206.16
2018-06-15T08:28:26.940Z,101204.00
2018-06-15T08:30:58.583Z,101202.06
2018-06-15T08:33:29.223Z,101204.86
2018-06-15T08:35:59.568Z,101202.77
2018-06-15T08:38:31.157Z,101202.54
2018-06-15T08:41:01.441Z,101197.12
2018-06-15T08:43:31.144Z,101207.92
2018-06-15T08:46:01.443Z,101203.81
2018-06-15T08:48:30.909Z,101196.95
2018-06-15T08:51:00.628Z,101199.40
2018-06-15T08:53:30.633Z,101199.73
2018-06-15T08:56:01.192Z,101200.13
2018-06-15T08:58:31.585Z,101203.92
2018-06-15T09:01:02.229Z,101205.92
2018-06-15T09:03:32.936Z,101210.17
2018-06-15T09:06:02.741Z,101203.48
2018-06-15T09:08:35.698Z,101208.02
2018-06-15T09:11:05.428Z,101206.95
2018-06-15T09:13:36.657Z,101204.75
2018-06-15T09:16:06.313Z,101201.78
2018-06-15T09:18:36.845Z,101204.63
2018-06-15T09:21:09.022Z,101203.97
2018-06-15T09:23:39.871Z,101202.38
2018-06-15T09:26:09.555Z,101202.70
2018-06-15T09:28:39.173Z,101201.73
2018-06-15T09:31:12.633Z,101203.84
2018-06-15T09:33:43.367Z,101204.58
2018-06-15T09:36:13.129Z,101202.62
2018-06-15T09:38:44.850Z,101201.88
2018-06-15T09:41:15.016Z,101204.62
2018-06-15T09:43:45.164Z,101198.62
2018-06-15T09:46:16.468Z,101200.20
2018-06-15T09:48:47.107Z,101202.45
2018-06-15T09:51:17.003Z,101198.80
2018-06-15T09:53:48.298Z,101206.63
2018-06-15T09:56:18.269Z,101201.83
2018-06-15T09:58:48.098Z,101198.50
2018-06-15T10:01:19.224Z,101200.00
2018-06-15T10:03:50.070Z,101193.26
2018-06-15T10:06:20.754Z,101204.18
2018-06-15T10:08:51.206Z,101200.72
2018-06-15T10:11:21.757Z,101200.72
2018-06-15T10:13:51.533Z,101204.23
2018-06-15T10:16:22.082Z,101196.25
2018-06-15T10:18:52.192Z,101197.24
2018-06-15T10:21:22.728Z,101196.92
2018-06-15T10:23:53.216Z,101201.12
2018-06-15T10:26:23.651Z,101199.17
2018-06-15T10:28:55.240Z,101193.33
2018-06-15T10:31:25.032Z,101197.80
2018-06-15T10:33:55.457Z,101197.45
2018-06-15T10:36:25.561Z,101202.75
2018-06-15T10:38:56.010Z,101200.13
2018-06-15T10:41:26.010Z,101205.52
2018-06-15T10:43:55.716Z,101205.63
2018-06-15T10:46:25.557Z,101208.55
2018-06-15T10:48:55.148Z,101208.05
2018-06-15T10:51:24.756Z,101206.59
2018-06-15T10:53:56.215Z,101208.84
2018-06-15T10:56:26.315Z,101209.41
2018-06-15T10:58:57.465Z,101204.44
2018-06-15T11:01:27.042Z,101202.06
2018-06-15T11:03:57.299Z,101200.47
2018-06-15T11:06:27.909Z,101202.58
2018-06-15T11:08:58.204Z,101199.15
2018-06-15T11:11:28.178Z,101194.00
2018-06-15T11:14:00.595Z,101198.33
2018-06-15T11:16:30.894Z,101198.33
2018-06-15T11:19:02.629Z,101203.26
2018-06-15T11:21:33.101Z,101200.64
2018-06-15T11:24:03.951Z,101195.23
2018-06-15T11:26:34.317Z,101201.60
2018-06-15T11:29:04.045Z,101203.64
2018-06-15T11:31:33.746Z,101204.91
2018-06-15T11:34:03.425Z,101200.99
2018-06-15T11:36:33.355Z,101203.77
2018-06-15T11:39:03.422Z,101204.22
2018-06-15T11:41:33.176Z,101204.55
2018-06-15T11:44:03.627Z,101204.50
2018-06-15T11:46:34.304Z,101209.69
2018-06-15T11:49:05.844Z,101202.63
2018-06-15T11:51:36.344Z,101205.94
2018-06-15T11:54:07.018Z,101202.75
2018-06-15T11:56:36.743Z,101201.23
2018-06-15T11:59:07.099Z,101199.60
2018-06-15T12:01:37.680Z,101199.11
2018-06-15T12:04:09.546Z,101197.11
2018-06-15T12:06:39.724Z,101191.58
2018-06-15T12:09:10.970Z,101190.66
2018-06-15T12:11:40.871Z,101190.14
2018-06-15T12:14:10.549Z,101186.19
2018-06-15T12:16:41.833Z,101185.47
2018-06-15T12:19:12.298Z,101175.39
2018-06-15T12:21:42.284Z,101173.44
2018-06-15T12:24:12.703Z,101168.50
2018-06-15T12:26:43.354Z,101169.50
2018-06-15T12:29:15.244Z,101164.12
2018-06-15T12:31:46.392Z,101165.68
2018-06-15T12:34:17.126Z,101165.05
2018-06-15T12:36:47.888Z,101171.88
2018-06-15T12:39:17.741Z,101159.80
2018-06-15T12:41:47.436Z,101163.15
2018-06-15T12:44:17.702Z,101169.55
2018-06-15T12:46:47.442Z,101164.66
2018-06-15T12:49:17.757Z,101164.50
2018-06-15T12:51:48.605Z,101161.02
2018-06-15T12:54:18.283Z,101158.67
2018-06-15T12:56:49.135Z,101159.19
2018-06-15T12:59:19.523Z,101154.24
2018-06-15T13:01:49.809Z,101154.80
2018-06-15T13:04:20.267Z,101153.30
2018-06-15T13:06:53.615Z,101145.64
2018-06-15T13:09:24.241Z,101146.81
2018-06-15T13:11:55.301Z,101148.70
2018-06-15T13:14:25.759Z,101150.81
2018-06-15T13:16:55.492Z,101144.77
2018-06-15T13:19:25.689Z,101144.39
2018-06-15T13:21:57.578Z,101141.71
2018-06-15T13:24:27.467Z,101134.59
2018-06-15T13:26:57.157Z,101136.44
2018-06-15T13:29:27.826Z,101138.01
2018-06-15T13:32:03.518Z,101129.61
2018-06-15T13:34:33.307Z,101131.20
2018-06-15T13:37:05.432Z,101136.14
2018-06-15T13:39:36.088Z,101130.05
2018-06-15T13:42:08.157Z,101135.05
2018-06-15T13:44:38.526Z,101131.33
2018-06-15T13:47:08.356Z,101135.94
2018-06-15T13:49:37.984Z,101132.88
2018-06-15T13:52:09.003Z,101130.86
2018-06-15T13:54:38.995Z,101126.73
2018-06-15T13:57:08.624Z,101126.79
2018-06-15T13:59:38.967Z,101126.42
2018-06-15T14:02:08.663Z,101121.48
2018-06-15T14:04:38.281Z,101122.36
2018-06-15T14:07:09.620Z,101121.52
2018-06-15T14:09:39.364Z,101123.76
2018-06-15T14:12:09.154Z,101125.27
2018-06-15T14:14:39.023Z,101123.20
2018-06-15T14:17:10.045Z,101117.52
2018-06-15T14:19:39.921Z,101117.59
2018-06-15T14:22:10.614Z,101116.00
2018-06-15T14:24:42.257Z,101111.95
2018-06-15T14:27:11.998Z,101114.87
2018-06-15T14:29:41.805Z,101116.66
2018-06-15T14:32:11.833Z,101114.75
2018-06-15T14:34:41.811Z,101111.63
2018-06-15T14:37:11.514Z,101112.95
2018-06-15T14:39:41.639Z,101107.78
2018-06-15T14:42:11.387Z,101105.64
2018-06-15T14:44:42.286Z,101110.71
2018-06-15T14:47:12.018Z,101102.55
2018-06-15T14:49:42.668Z,101107.42
2018-06-15T14:52:14.214Z,101102.16
2018-06-15T14:54:43.995Z,101106.20
2018-06-15T14:57:14.593Z,101108.66
2018-06-15T14:59:45.642Z,101107.86
2018-06-15T15:02:15.580Z,101107.63
2018-06-15T15:04:47.398Z,101110.89
2018-06-15T15:07:20.452Z,101106.41
2018-06-15T15:09:50.119Z,101099.08
2018-06-15T15:12:20.841Z,101102.28
2018-06-15T15:14:51.429Z,101099.36
2018-06-15T15:17:22.497Z,101102.09
2018-06-15T15:19:54.455Z,101092.22
2018-06-15T15:22:24.481Z,101096.91
2018-06-15T15:24:56.886Z,101088.03
2018-06-15T15:27:27.596Z,101093.74
2018-06-15T15:29:58.049Z,101088.83
2018-06-15T15:32:27.829Z,101086.25
2018-06-15T15:34:57.681Z,101082.95
2018-06-15T15:37:27.833Z,101077.26
2018-06-15T15:39:57.493Z,101081.25
2018-06-15T15:42:27.150Z,101079.81
2018-06-15T15:44:56.958Z,101081.21
2018-06-15T15:47:26.623Z,101087.84
2018-06-15T15:49:56.722Z,101079.39
2018-06-15T15:52:27.117Z,101080.20
2018-06-15T15:54:57.496Z,101082.25
2018-06-15T15:57:27.397Z,101081.88
2018-06-15T15:59:57.409Z,101078.45
2018-06-15T16:02:27.308Z,101068.71
2018-06-15T16:04:57.779Z,101064.98
2018-06-15T16:07:27.596Z,101065.16
2018-06-15T16:09:57.475Z,101069.39
2018-06-15T16:12:27.293Z,101064.56
2018-06-15T16:14:57.253Z,101072.09
2018-06-15T16:17:27.378Z,101065.57
2018-06-15T16:19:57.444Z,101067.56
2018-06-15T16:22:27.267Z,101068.09
2018-06-15T16:24:56.978Z,101070.55
2018-06-15T16:27:27.193Z,101063.39
2018-06-15T16:29:57.474Z,101060.29
2018-06-15T16:32:27.154Z,101061.43
2018-06-15T16:34:58.995Z,101055.80
2018-06-15T16:37:28.706Z,101060.14
2018-06-15T16:40:00.307Z,101055.06
2018-06-15T16:42:30.529Z,101052.46
2018-06-15T16:45:00.291Z,101060.55
2018-06-15T16:47:30.980Z,101055.59
2018-06-15T16:50:00.660Z,101056.50
2018-06-15T16:52:31.246Z,101050.22
2018-06-15T16:55:01.105Z,101056.52
2018-06-15T16:57:30.852Z,101054.63
2018-06-15T17:00:01.576Z,101055.67
2018-06-15T17:02:31.286Z,101061.11
2018-06-15T17:05:01.162Z,101056.84
2018-06-15T17:07:30.906Z,101057.47
2018-06-15T17:10:01.378Z,101056.89
2018-06-15T17:12:32.585Z,101063.45
2018-06-15T17:15:02.603Z,101056.92
2018-06-15T17:17:32.245Z,101052.38
2018-06-15T17:20:02.504Z,101049.81
2018-06-15T17:22:34.536Z,101050.61
2018-06-15T17:25:04.840Z,101051.45
2018-06-15T17:27:34.590Z,101049.88
2018-06-15T17:30:04.466Z,101060.31
2018-06-15T17:32:34.206Z,101054.59
2018-06-15T17:35:03.988Z,101062.96
2018-06-15T17:37:34.788Z,101057.42
2018-06-15T17:40:04.532Z,101056.46
2018-06-15T17:42:34.254Z,101049.09
2018-06-15T17:45:04.080Z,101054.54
2018-06-15T17:47:34.864Z,101058.70
2018-06-15T17:50:04.707Z,101059.46
2018-06-15T17:52:34.783Z,101064.61
2018-06-15T17:55:06.039Z,101069.51
2018-06-15T17:57:36.093Z,101065.13
2018-06-15T18:00:07.073Z,101060.85
2018-06-15T18:02:37.123Z,101072.98
2018-06-15T18:05:07.477Z,101068.70
2018-06-15T18:07:37.568Z,101070.42
2018-06-15T18:10:07.357Z,101071.05
2018-06-15T18:12:37.700Z,101073.69
2018-06-15T18:15:08.467Z,101071.23
2018-06-15T18:17:38.303Z,101079.87
2018-06-15T18:20:08.623Z,101083.58
2018-06-15T18:22:38.693Z,101086.53
2018-06-15T18:25:08.514Z,101086.78
2018-06-15T18:27:38.194Z,101084.23
2018-06-15T18:30:07.930Z,101087.53
2018-06-15T18:32:37.731Z,101087.14
2018-06-15T18:35:07.415Z,101085.31
2018-06-15T18:37:37.122Z,101082.21
2018-06-15T18:40:07.005Z,101078.80
2018-06-15T18:42:37.124Z,101087.52
2018-06-15T18:45:06.869Z,101082.00
2018-06-15T18:47:36.817Z,101088.60
2018-06-15T18:50:07.723Z,101084.11
2018-06-15T18:52:38.001Z,101087.34
2018-06-15T18:55:08.200Z,101093.39
2018-06-15T18:57:38.040Z,101091.42
2018-06-15T19:00:08.206Z,101090.26
2018-06-15T19:02:38.356Z,101092.17
2018-06-15T19:05:08.386Z,101090.15
2018-06-15T19:07:38.097Z,101091.52
2018-06-15T19:10:08.020Z,101089.44
2018-06-15T19:12:37.698Z,101093.96
2018-06-15T19:15:07.934Z,101091.23
2018-06-15T19:17:37.950Z,101082.71
2018-06-15T19:20:07.820Z,101084.76
2018-06-15T19:22:38.203Z,101089.22
2018-06-15T19:25:09.098Z,101088.25
2018-06-15T19:27:38.959Z,101087.13
2018-06-15T19:30:08.666Z,101092.55
2018-06-15T19:32:38.554Z,101090.02
2018-06-15T19:35:08.291Z,101092.52
2018-06-15T19:37:38.351Z,101096.73
2018-06-15T19:40:08.143Z,101096.73
2018-06-15T19:42:37.932Z,101095.28
2018-06-15T19:45:07.892Z,101091.95
2018-06-15T19:47:37.535Z,101100.89
2018-06-15T19:50:07.884Z,101101.02
2018-06-15T19:52:38.481Z,101106.52
2018-06-15T19:55:08.189Z,101108.13
2018-06-15T19:57:37.907Z,101105.84
2018-06-15T20:00:07.807Z,101109.89
2018-06-15T20:02:37.249Z,101104.92
2018-06-15T20:05:07.233Z,101103.34
2018-06-15T20:07:36.954Z,101098.61
2018-06-15T20:10:06.687Z,101100.50
2018-06-15T20:12:36.373Z,101106.62
2018-06-15T20:15:07.110Z,101108.14
2018-06-15T20:17:38.177Z,101104.35
2018-06-15T20:20:08.620Z,101102.23
2018-06-15T20:22:38.240Z,101104.20
2018-06-15T20:25:08.123Z,101105.59
2018-06-15T20:27:39.331Z,101106.98
2018-06-15T20:30:09.076Z,101102.80
2018-06-15T20:32:38.787Z,101103.00
2018-06-15T20:35:08.538Z,101101.63
2018-06-15T20:37:38.340Z,101100.97
2018-06-15T20:40:07.944Z,101096.69
2018-06-15T20:42:38.554Z,101098.12
2018-06-15T20:45:08.220Z,101098.24
2018-06-15T20:47:37.997Z,101097.06
2018-06-15T20:50:08.271Z,101093.72
2018-06-15T20:52:38.705Z,101100.86
2018-06-15T20:55:09.445Z,101101.43
2018-06-15T20:57:39.058Z,101094.58
2018-06-15T21:00:08.977Z,101089.02
2018-06-15T21:02:38.703Z,101092.20
2018-06-15T21:05:08.502Z,101094.53
2018-06-15T21:07:38.625Z,101096.86
2018-06-15T21:10:08.437Z,101096.56
2018-06-15T21:12:38.230Z,101096.39
2018-06-15T21:15:08.121Z,101096.52
2018-06-15T21:17:37.824Z,101090.27
2018-06-15T21:20:08.327Z,101094.67
2018-06-15T21:22:37.995Z,101090.42
2018-06-15T21:25:08.627Z,101086.29
2018-06-15T21:27:40.348Z,101086.33
2018-06-15T21:30:10.399Z,101086.41
2018-06-15T21:32:40.221Z,101091.23
2018-06-15T21:35:10.125Z,101084.86
2018-06-15T21:37:39.880Z,101085.42
2018-06-15T21:40:09.594Z,101087.13
2018-06-15T21:42:39.435Z,101081.95
2018-06-15T21:45:09.296Z,101081.21
2018-06-15T21:47:39.150Z,101077.03
2018-06-15T21:50:08.662Z,101076.74
2018-06-15T21:52:39.639Z,101077.75
2018-06-15T21:55:09.441Z,101080.73
2018-06-15T21:57:39.320Z,101079.09
2018-06-15T22:00:09.927Z,101070.04
2018-06-15T22:02:39.680Z,101077.94
2018-06-15T22:05:09.386Z,101072.39
2018-06-15T22:07:39.188Z,101070.79
2018-06-15T22:10:09.122Z,101071.80
2018-06-15T22:12:38.815Z,101069.30
2018-06-15T22:15:08.565Z,101067.31
2018-06-15T22:17:38.235Z,101066.50
2018-06-15T22:20:07.851Z,101069.18
2018-06-15T22:22:37.556Z,101064.04
2018-06-15T22:25:07.200Z,101066.86
2018-06-15T22:27:36.897Z,101066.08
2018-06-15T22:30:07.222Z,101065.88
2018-06-15T22:32:37.383Z,101071.23
2018-06-15T22:35:07.195Z,101060.84
2018-06-15T22:37:36.804Z,101062.33
2018-06-15T22:40:06.485Z,101067.55
2018-06-15T22:42:36.376Z,101071.11
2018-06-15T22:45:06.173Z,101074.27
2018-06-15T22:47:35.774Z,101076.56
2018-06-15T22:50:05.452Z,101071.09
2018-06-15T22:52:35.139Z,101074.20
2018-06-15T22:55:05.857Z,101079.00
2018-06-15T22:57:36.501Z,101075.54
2018-06-15T23:00:07.266Z,101075.20
2018-06-15T23:02:38.288Z,101069.68
2018-06-15T23:05:07.975Z,101076.70
2018-06-15T23:07:37.774Z,101070.73
2018-06-15T23:10:07.548Z,101073.83
2018-06-15T23:12:37.223Z,101081.30
2018-06-15T23:15:07.229Z,101083.14
2018-06-15T23:17:37.909Z,101089.69
2018-06-15T23:20:07.772Z,101090.64
2018-06-15T23:22:38.809Z,101088.61
2018-06-15T23:25:09.310Z,101093.47
2018-06-15T23:27:39.076Z,101094.74
2018-06-15T23:30:08.735Z,101094.02
2018-06-15T23:32:39.288Z,101092.39
2018-06-15T23:35:08.915Z,101096.75
2018-06-15T23:37:38.686Z,101095.54
2018-06-15T23:40:09.170Z,101096.81
2018-06-15T23:42:38.799Z,101097.16
2018-06-15T23:45:08.625Z,101091.86
2018-06-15T23:47:38.759Z,101091.00
2018-06-15T23:50:09.846Z,101088.84
2018-06-15T23:52:39.527Z,101098.02
2018-06-15T23:55:09.796Z,101094.14
2018-06-15T23:57:39.535Z,101096.84
